sensor_id;sensor_type;location;lat;lon;timestamp;P1;durP1;ratioP1;P2;durP2;ratioP2
18879;SDS011;9572;52.378;13.404;2023-04-25T00:02:23;3.70;;;1.90;;
18879;SDS011;9572;52.378;13.404;2023-04-25T00:04:51;1.93;;;1.50;;
18879;SDS011;9572;52.378;13.404;2023-04-25T00:07:18;2.63;;;1.60;;
18879;SDS011;9572;52.378;13.404;2023-04-25T00:09:45;7.00;;;1.77;;
18879;SDS011;9572;52.378;13.404;2023-04-25T00:12:12;7.10;;;2.00;;
18879;SDS011;9572;52.378;13.404;2023-04-25T00:14:39;4.70;;;1.77;;
18879;SDS011;9572;52.378;13.404;2023-04-25T00:17:06;3.97;;;1.63;;
18879;SDS011;9572;52.378;13.404;2023-04-25T00:19:32;3.17;;;1.77;;
18879;SDS011;9572;52.378;13.404;2023-04-25T00:22:01;6.30;;;1.90;;
18879;SDS011;9572;52.378;13.404;2023-04-25T00:24:28;4.47;;;1.70;;
18879;SDS011;9572;52.378;13.404;2023-04-25T00:26:55;5.80;;;2.73;;
18879;SDS011;9572;52.378;13.404;2023-04-25T00:29:21;3.80;;;1.80;;
18879;SDS011;9572;52.378;13.404;2023-04-25T00:31:48;8.17;;;1.90;;
18879;SDS011;9572;52.378;13.404;2023-04-25T00:34:15;8.63;;;2.30;;
18879;SDS011;9572;52.378;13.404;2023-04-25T00:36:42;5.57;;;2.03;;
18879;SDS011;9572;52.378;13.404;2023-04-25T00:39:10;3.87;;;1.70;;
18879;SDS011;9572;52.378;13.404;2023-04-25T00:41:38;4.57;;;2.23;;
18879;SDS011;9572;52.378;13.404;2023-04-25T00:44:05;4.43;;;2.17;;
18879;SDS011;9572;52.378;13.404;2023-04-25T00:46:36;3.17;;;1.90;;
18879;SDS011;9572;52.378;13.404;2023-04-25T00:49:03;7.13;;;2.20;;
18879;SDS011;9572;52.378;13.404;2023-04-25T00:51:30;5.50;;;2.23;;
18879;SDS011;9572;52.378;13.404;2023-04-25T00:53:58;7.17;;;2.67;;
18879;SDS011;9572;52.378;13.404;2023-04-25T00:56:27;5.83;;;2.73;;
18879;SDS011;9572;52.378;13.404;2023-04-25T00:58:55;5.37;;;2.37;;
18879;SDS011;9572;52.378;13.404;2023-04-25T01:01:22;8.27;;;2.40;;
18879;SDS011;9572;52.378;13.404;2023-04-25T01:03:49;7.83;;;2.70;;
18879;SDS011;9572;52.378;13.404;2023-04-25T01:06:17;10.23;;;2.50;;
18879;SDS011;9572;52.378;13.404;2023-04-25T01:08:44;6.57;;;2.20;;
18879;SDS011;9572;52.378;13.404;2023-04-25T01:11:11;4.77;;;2.00;;
18879;SDS011;9572;52.378;13.404;2023-04-25T01:13:40;9.43;;;3.07;;
18879;SDS011;9572;52.378;13.404;2023-04-25T01:16:07;5.40;;;2.47;;
18879;SDS011;9572;52.378;13.404;2023-04-25T01:18:34;7.07;;;2.30;;
18879;SDS011;9572;52.378;13.404;2023-04-25T01:21:04;9.37;;;2.40;;
18879;SDS011;9572;52.378;13.404;2023-04-25T01:23:34;5.13;;;2.27;;
18879;SDS011;9572;52.378;13.404;2023-04-25T01:26:01;7.33;;;2.50;;
18879;SDS011;9572;52.378;13.404;2023-04-25T01:28:29;8.57;;;2.77;;
18879;SDS011;9572;52.378;13.404;2023-04-25T01:30:56;9.90;;;2.50;;
18879;SDS011;9572;52.378;13.404;2023-04-25T01:33:23;5.37;;;2.37;;
18879;SDS011;9572;52.378;13.404;2023-04-25T01:35:50;7.30;;;2.30;;
18879;SDS011;9572;52.378;13.404;2023-04-25T01:38:19;5.30;;;2.40;;
18879;SDS011;9572;52.378;13.404;2023-04-25T01:40:46;7.87;;;2.10;;
18879;SDS011;9572;52.378;13.404;2023-04-25T01:43:13;3.03;;;1.90;;
18879;SDS011;9572;52.378;13.404;2023-04-25T01:45:40;3.30;;;2.23;;
18879;SDS011;9572;52.378;13.404;2023-04-25T01:48:07;7.20;;;2.40;;
18879;SDS011;9572;52.378;13.404;2023-04-25T01:50:34;9.93;;;2.77;;
18879;SDS011;9572;52.378;13.404;2023-04-25T01:53:01;4.17;;;2.37;;
18879;SDS011;9572;52.378;13.404;2023-04-25T01:55:30;3.60;;;2.23;;
18879;SDS011;9572;52.378;13.404;2023-04-25T01:57:57;4.00;;;1.97;;
18879;SDS011;9572;52.378;13.404;2023-04-25T02:00:25;8.50;;;2.80;;
18879;SDS011;9572;52.378;13.404;2023-04-25T02:02:52;6.80;;;3.37;;
18879;SDS011;9572;52.378;13.404;2023-04-25T02:05:18;7.70;;;3.00;;
18879;SDS011;9572;52.378;13.404;2023-04-25T02:07:46;5.77;;;2.83;;
18879;SDS011;9572;52.378;13.404;2023-04-25T02:10:13;6.57;;;2.40;;
18879;SDS011;9572;52.378;13.404;2023-04-25T02:12:42;5.73;;;2.90;;
18879;SDS011;9572;52.378;13.404;2023-04-25T02:15:09;7.70;;;2.90;;
18879;SDS011;9572;52.378;13.404;2023-04-25T02:17:36;4.77;;;2.83;;
18879;SDS011;9572;52.378;13.404;2023-04-25T02:20:04;4.87;;;2.73;;
18879;SDS011;9572;52.378;13.404;2023-04-25T02:22:32;6.37;;;2.87;;
18879;SDS011;9572;52.378;13.404;2023-04-25T02:25:00;8.13;;;3.23;;
18879;SDS011;9572;52.378;13.404;2023-04-25T02:27:27;5.80;;;3.07;;
18879;SDS011;9572;52.378;13.404;2023-04-25T02:29:56;4.97;;;2.73;;
18879;SDS011;9572;52.378;13.404;2023-04-25T02:32:22;5.33;;;2.97;;
18879;SDS011;9572;52.378;13.404;2023-04-25T02:34:49;8.60;;;2.73;;
18879;SDS011;9572;52.378;13.404;2023-04-25T02:37:16;4.50;;;2.90;;
18879;SDS011;9572;52.378;13.404;2023-04-25T02:39:43;7.53;;;2.83;;
18879;SDS011;9572;52.378;13.404;2023-04-25T02:42:10;4.70;;;3.00;;
18879;SDS011;9572;52.378;13.404;2023-04-25T02:44:37;8.63;;;2.97;;
18879;SDS011;9572;52.378;13.404;2023-04-25T02:47:05;7.33;;;3.33;;
18879;SDS011;9572;52.378;13.404;2023-04-25T02:49:32;6.43;;;3.10;;
18879;SDS011;9572;52.378;13.404;2023-04-25T02:51:59;8.40;;;3.13;;
18879;SDS011;9572;52.378;13.404;2023-04-25T02:54:26;3.97;;;3.17;;
18879;SDS011;9572;52.378;13.404;2023-04-25T02:56:52;5.87;;;3.07;;
18879;SDS011;9572;52.378;13.404;2023-04-25T02:59:19;7.53;;;3.47;;
18879;SDS011;9572;52.378;13.404;2023-04-25T03:01:46;4.63;;;3.00;;
18879;SDS011;9572;52.378;13.404;2023-04-25T03:04:14;4.67;;;2.77;;
18879;SDS011;9572;52.378;13.404;2023-04-25T03:06:41;7.23;;;3.00;;
18879;SDS011;9572;52.378;13.404;2023-04-25T03:09:08;7.93;;;3.20;;
18879;SDS011;9572;52.378;13.404;2023-04-25T03:11:36;9.53;;;3.33;;
18879;SDS011;9572;52.378;13.404;2023-04-25T03:14:03;5.40;;;3.03;;
18879;SDS011;9572;52.378;13.404;2023-04-25T03:16:30;11.10;;;3.50;;
18879;SDS011;9572;52.378;13.404;2023-04-25T03:18:57;9.83;;;3.23;;
18879;SDS011;9572;52.378;13.404;2023-04-25T03:21:25;7.03;;;3.20;;
18879;SDS011;9572;52.378;13.404;2023-04-25T03:23:52;10.37;;;3.40;;
18879;SDS011;9572;52.378;13.404;2023-04-25T03:26:19;6.10;;;3.30;;
18879;SDS011;9572;52.378;13.404;2023-04-25T03:28:46;6.57;;;3.50;;
18879;SDS011;9572;52.378;13.404;2023-04-25T03:31:13;8.57;;;3.30;;
18879;SDS011;9572;52.378;13.404;2023-04-25T03:33:40;10.13;;;3.87;;
18879;SDS011;9572;52.378;13.404;2023-04-25T03:36:07;6.97;;;3.23;;
18879;SDS011;9572;52.378;13.404;2023-04-25T03:38:36;9.30;;;3.50;;
18879;SDS011;9572;52.378;13.404;2023-04-25T03:41:03;8.47;;;3.20;;
18879;SDS011;9572;52.378;13.404;2023-04-25T03:43:29;7.47;;;3.57;;
18879;SDS011;9572;52.378;13.404;2023-04-25T03:45:56;7.30;;;3.23;;
18879;SDS011;9572;52.378;13.404;2023-04-25T03:48:23;5.83;;;3.40;;
18879;SDS011;9572;52.378;13.404;2023-04-25T03:50:51;9.93;;;3.40;;
18879;SDS011;9572;52.378;13.404;2023-04-25T03:53:18;8.87;;;3.50;;
18879;SDS011;9572;52.378;13.404;2023-04-25T03:55:47;9.73;;;3.50;;
18879;SDS011;9572;52.378;13.404;2023-04-25T03:58:14;8.10;;;3.50;;
18879;SDS011;9572;52.378;13.404;2023-04-25T04:00:41;9.50;;;3.50;;
18879;SDS011;9572;52.378;13.404;2023-04-25T04:03:08;8.77;;;3.60;;
18879;SDS011;9572;52.378;13.404;2023-04-25T04:05:36;7.33;;;2.97;;
18879;SDS011;9572;52.378;13.404;2023-04-25T04:08:05;7.90;;;3.60;;
18879;SDS011;9572;52.378;13.404;2023-04-25T04:10:32;9.03;;;3.53;;
18879;SDS011;9572;52.378;13.404;2023-04-25T04:13:01;7.57;;;3.87;;
18879;SDS011;9572;52.378;13.404;2023-04-25T04:15:28;9.50;;;3.47;;
18879;SDS011;9572;52.378;13.404;2023-04-25T04:17:57;9.50;;;3.50;;
18879;SDS011;9572;52.378;13.404;2023-04-25T04:20:27;10.67;;;3.93;;
18879;SDS011;9572;52.378;13.404;2023-04-25T04:22:54;7.50;;;3.63;;
18879;SDS011;9572;52.378;13.404;2023-04-25T04:25:21;6.10;;;3.70;;
18879;SDS011;9572;52.378;13.404;2023-04-25T04:27:49;9.23;;;3.67;;
18879;SDS011;9572;52.378;13.404;2023-04-25T04:30:20;8.03;;;4.77;;
18879;SDS011;9572;52.378;13.404;2023-04-25T04:32:49;8.30;;;3.53;;
18879;SDS011;9572;52.378;13.404;2023-04-25T04:35:16;8.80;;;3.23;;
18879;SDS011;9572;52.378;13.404;2023-04-25T04:37:43;7.67;;;3.80;;
18879;SDS011;9572;52.378;13.404;2023-04-25T04:40:10;6.10;;;3.50;;
18879;SDS011;9572;52.378;13.404;2023-04-25T04:42:40;7.47;;;3.77;;
18879;SDS011;9572;52.378;13.404;2023-04-25T04:45:07;12.43;;;3.80;;
18879;SDS011;9572;52.378;13.404;2023-04-25T04:47:36;9.77;;;3.67;;
18879;SDS011;9572;52.378;13.404;2023-04-25T04:50:05;6.00;;;3.73;;
18879;SDS011;9572;52.378;13.404;2023-04-25T04:52:33;7.53;;;3.60;;
18879;SDS011;9572;52.378;13.404;2023-04-25T04:55:01;7.23;;;4.00;;
18879;SDS011;9572;52.378;13.404;2023-04-25T04:57:29;9.73;;;3.67;;
18879;SDS011;9572;52.378;13.404;2023-04-25T04:59:57;7.23;;;4.07;;
18879;SDS011;9572;52.378;13.404;2023-04-25T05:02:25;5.40;;;3.30;;
18879;SDS011;9572;52.378;13.404;2023-04-25T05:04:53;10.77;;;3.90;;
18879;SDS011;9572;52.378;13.404;2023-04-25T05:07:22;10.00;;;4.00;;
18879;SDS011;9572;52.378;13.404;2023-04-25T05:09:49;9.70;;;4.13;;
18879;SDS011;9572;52.378;13.404;2023-04-25T05:12:15;8.63;;;3.83;;
18879;SDS011;9572;52.378;13.404;2023-04-25T05:14:42;9.93;;;4.50;;
18879;SDS011;9572;52.378;13.404;2023-04-25T05:17:09;10.00;;;4.13;;
18879;SDS011;9572;52.378;13.404;2023-04-25T05:19:36;10.43;;;3.73;;
18879;SDS011;9572;52.378;13.404;2023-04-25T05:22:05;10.47;;;4.40;;
18879;SDS011;9572;52.378;13.404;2023-04-25T05:24:32;9.53;;;3.87;;
18879;SDS011;9572;52.378;13.404;2023-04-25T05:26:59;7.60;;;4.10;;
18879;SDS011;9572;52.378;13.404;2023-04-25T05:29:27;12.13;;;4.23;;
18879;SDS011;9572;52.378;13.404;2023-04-25T05:31:54;11.30;;;4.90;;
18879;SDS011;9572;52.378;13.404;2023-04-25T05:34:21;7.73;;;4.20;;
18879;SDS011;9572;52.378;13.404;2023-04-25T05:36:48;7.97;;;4.37;;
18879;SDS011;9572;52.378;13.404;2023-04-25T05:39:16;10.77;;;4.27;;
18879;SDS011;9572;52.378;13.404;2023-04-25T05:41:43;10.43;;;4.37;;
18879;SDS011;9572;52.378;13.404;2023-04-25T05:44:10;8.60;;;3.77;;
18879;SDS011;9572;52.378;13.404;2023-04-25T05:46:37;10.37;;;3.63;;
18879;SDS011;9572;52.378;13.404;2023-04-25T05:49:04;14.53;;;4.47;;
18879;SDS011;9572;52.378;13.404;2023-04-25T05:51:32;8.97;;;4.50;;
18879;SDS011;9572;52.378;13.404;2023-04-25T05:53:58;9.67;;;4.13;;
18879;SDS011;9572;52.378;13.404;2023-04-25T05:56:27;10.70;;;4.57;;
18879;SDS011;9572;52.378;13.404;2023-04-25T05:58:54;8.60;;;4.27;;
18879;SDS011;9572;52.378;13.404;2023-04-25T06:01:21;8.97;;;4.20;;
18879;SDS011;9572;52.378;13.404;2023-04-25T06:03:48;10.97;;;4.40;;
18879;SDS011;9572;52.378;13.404;2023-04-25T06:06:16;7.67;;;4.53;;
18879;SDS011;9572;52.378;13.404;2023-04-25T06:08:43;8.10;;;4.40;;
18879;SDS011;9572;52.378;13.404;2023-04-25T06:11:10;10.90;;;5.30;;
18879;SDS011;9572;52.378;13.404;2023-04-25T06:13:38;8.43;;;4.30;;
18879;SDS011;9572;52.378;13.404;2023-04-25T06:16:05;7.80;;;3.80;;
18879;SDS011;9572;52.378;13.404;2023-04-25T06:18:32;9.13;;;4.33;;
18879;SDS011;9572;52.378;13.404;2023-04-25T06:20:59;9.23;;;4.03;;
18879;SDS011;9572;52.378;13.404;2023-04-25T06:23:26;12.20;;;4.70;;
18879;SDS011;9572;52.378;13.404;2023-04-25T06:25:53;10.87;;;4.40;;
18879;SDS011;9572;52.378;13.404;2023-04-25T06:28:20;10.00;;;4.20;;
18879;SDS011;9572;52.378;13.404;2023-04-25T06:30:49;14.03;;;4.50;;
18879;SDS011;9572;52.378;13.404;2023-04-25T06:33:16;10.23;;;4.30;;
18879;SDS011;9572;52.378;13.404;2023-04-25T06:35:43;11.37;;;4.40;;
18879;SDS011;9572;52.378;13.404;2023-04-25T06:38:10;10.80;;;4.40;;
18879;SDS011;9572;52.378;13.404;2023-04-25T06:40:37;6.90;;;3.83;;
18879;SDS011;9572;52.378;13.404;2023-04-25T06:43:04;9.23;;;4.20;;
18879;SDS011;9572;52.378;13.404;2023-04-25T06:45:31;10.73;;;4.63;;
18879;SDS011;9572;52.378;13.404;2023-04-25T06:47:59;10.60;;;5.07;;
18879;SDS011;9572;52.378;13.404;2023-04-25T06:50:26;10.27;;;5.20;;
18879;SDS011;9572;52.378;13.404;2023-04-25T06:52:53;8.87;;;4.93;;
18879;SDS011;9572;52.378;13.404;2023-04-25T06:55:20;11.07;;;4.87;;
18879;SDS011;9572;52.378;13.404;2023-04-25T06:57:47;13.33;;;5.40;;
18879;SDS011;9572;52.378;13.404;2023-04-25T07:00:14;8.73;;;4.53;;
18879;SDS011;9572;52.378;13.404;2023-04-25T07:02:44;10.93;;;4.70;;
18879;SDS011;9572;52.378;13.404;2023-04-25T07:05:13;10.20;;;4.20;;
18879;SDS011;9572;52.378;13.404;2023-04-25T07:07:43;10.70;;;4.20;;
18879;SDS011;9572;52.378;13.404;2023-04-25T07:10:10;11.53;;;4.00;;
18879;SDS011;9572;52.378;13.404;2023-04-25T07:12:37;9.57;;;4.13;;
18879;SDS011;9572;52.378;13.404;2023-04-25T07:15:05;12.43;;;4.40;;
18879;SDS011;9572;52.378;13.404;2023-04-25T07:17:35;10.97;;;4.23;;
18879;SDS011;9572;52.378;13.404;2023-04-25T07:20:01;10.90;;;4.00;;
18879;SDS011;9572;52.378;13.404;2023-04-25T07:22:32;12.13;;;3.97;;
18879;SDS011;9572;52.378;13.404;2023-04-25T07:24:59;10.27;;;4.20;;
18879;SDS011;9572;52.378;13.404;2023-04-25T07:27:26;11.93;;;4.77;;
18879;SDS011;9572;52.378;13.404;2023-04-25T07:29:52;7.87;;;4.10;;
18879;SDS011;9572;52.378;13.404;2023-04-25T07:32:19;11.83;;;4.20;;
18879;SDS011;9572;52.378;13.404;2023-04-25T07:34:46;11.03;;;4.10;;
18879;SDS011;9572;52.378;13.404;2023-04-25T07:37:13;8.20;;;3.53;;
18879;SDS011;9572;52.378;13.404;2023-04-25T07:39:41;14.37;;;3.80;;
18879;SDS011;9572;52.378;13.404;2023-04-25T07:42:08;10.97;;;3.27;;
18879;SDS011;9572;52.378;13.404;2023-04-25T07:44:35;8.97;;;3.30;;
18879;SDS011;9572;52.378;13.404;2023-04-25T07:47:05;10.00;;;3.27;;
18879;SDS011;9572;52.378;13.404;2023-04-25T07:49:33;11.50;;;3.83;;
18879;SDS011;9572;52.378;13.404;2023-04-25T07:52:00;16.03;;;3.73;;
18879;SDS011;9572;52.378;13.404;2023-04-25T07:54:28;12.20;;;3.20;;
18879;SDS011;9572;52.378;13.404;2023-04-25T07:56:56;11.87;;;3.40;;
18879;SDS011;9572;52.378;13.404;2023-04-25T07:59:23;13.57;;;4.13;;
18879;SDS011;9572;52.378;13.404;2023-04-25T08:01:50;16.07;;;3.40;;
18879;SDS011;9572;52.378;13.404;2023-04-25T08:04:17;18.43;;;4.23;;
18879;SDS011;9572;52.378;13.404;2023-04-25T08:06:44;11.73;;;3.50;;
18879;SDS011;9572;52.378;13.404;2023-04-25T08:09:11;12.97;;;3.80;;
18879;SDS011;9572;52.378;13.404;2023-04-25T08:11:38;9.03;;;3.60;;
18879;SDS011;9572;52.378;13.404;2023-04-25T08:14:06;15.33;;;3.93;;
18879;SDS011;9572;52.378;13.404;2023-04-25T08:16:33;9.23;;;3.70;;
18879;SDS011;9572;52.378;13.404;2023-04-25T08:19:00;13.33;;;3.77;;
18879;SDS011;9572;52.378;13.404;2023-04-25T08:21:27;12.53;;;3.77;;
18879;SDS011;9572;52.378;13.404;2023-04-25T08:23:54;12.43;;;3.83;;
18879;SDS011;9572;52.378;13.404;2023-04-25T08:26:23;12.07;;;3.47;;
18879;SDS011;9572;52.378;13.404;2023-04-25T08:28:50;13.57;;;3.63;;
18879;SDS011;9572;52.378;13.404;2023-04-25T08:31:18;14.47;;;3.57;;
18879;SDS011;9572;52.378;13.404;2023-04-25T08:33:45;14.55;;;3.97;;
18879;SDS011;9572;52.378;13.404;2023-04-25T08:36:12;12.17;;;3.33;;
18879;SDS011;9572;52.378;13.404;2023-04-25T08:38:39;12.27;;;3.70;;
18879;SDS011;9572;52.378;13.404;2023-04-25T08:41:06;12.57;;;3.43;;
18879;SDS011;9572;52.378;13.404;2023-04-25T08:43:33;23.20;;;3.83;;
18879;SDS011;9572;52.378;13.404;2023-04-25T08:46:01;18.57;;;3.93;;
18879;SDS011;9572;52.378;13.404;2023-04-25T08:48:31;23.87;;;3.40;;
18879;SDS011;9572;52.378;13.404;2023-04-25T08:50:59;12.37;;;3.00;;
18879;SDS011;9572;52.378;13.404;2023-04-25T08:53:32;13.03;;;3.47;;
18879;SDS011;9572;52.378;13.404;2023-04-25T08:56:00;12.63;;;2.70;;
18879;SDS011;9572;52.378;13.404;2023-04-25T08:58:28;16.37;;;2.73;;
18879;SDS011;9572;52.378;13.404;2023-04-25T09:00:55;11.73;;;2.40;;
18879;SDS011;9572;52.378;13.404;2023-04-25T09:03:22;11.83;;;3.40;;
18879;SDS011;9572;52.378;13.404;2023-04-25T09:05:50;14.77;;;2.63;;
18879;SDS011;9572;52.378;13.404;2023-04-25T09:08:18;12.70;;;2.50;;
18879;SDS011;9572;52.378;13.404;2023-04-25T09:10:45;9.63;;;2.57;;
18879;SDS011;9572;52.378;13.404;2023-04-25T09:13:13;7.83;;;2.37;;
18879;SDS011;9572;52.378;13.404;2023-04-25T09:15:47;15.73;;;2.70;;
18879;SDS011;9572;52.378;13.404;2023-04-25T09:18:21;9.10;;;3.13;;
18879;SDS011;9572;52.378;13.404;2023-04-25T09:20:52;14.73;;;2.80;;
18879;SDS011;9572;52.378;13.404;2023-04-25T09:23:19;7.87;;;2.57;;
18879;SDS011;9572;52.378;13.404;2023-04-25T09:25:48;10.87;;;3.20;;
18879;SDS011;9572;52.378;13.404;2023-04-25T09:28:15;12.70;;;2.97;;
18879;SDS011;9572;52.378;13.404;2023-04-25T09:30:43;10.60;;;2.27;;
18879;SDS011;9572;52.378;13.404;2023-04-25T09:33:12;18.90;;;3.77;;
18879;SDS011;9572;52.378;13.404;2023-04-25T09:35:39;14.63;;;2.93;;
18879;SDS011;9572;52.378;13.404;2023-04-25T09:38:13;12.07;;;3.07;;
18879;SDS011;9572;52.378;13.404;2023-04-25T09:40:43;14.83;;;2.90;;
18879;SDS011;9572;52.378;13.404;2023-04-25T09:43:18;12.97;;;2.60;;
18879;SDS011;9572;52.378;13.404;2023-04-25T09:45:46;12.13;;;2.90;;
18879;SDS011;9572;52.378;13.404;2023-04-25T09:48:17;8.60;;;2.50;;
18879;SDS011;9572;52.378;13.404;2023-04-25T09:50:45;9.50;;;2.40;;
18879;SDS011;9572;52.378;13.404;2023-04-25T09:53:13;11.77;;;2.83;;
18879;SDS011;9572;52.378;13.404;2023-04-25T09:55:40;10.33;;;2.23;;
18879;SDS011;9572;52.378;13.404;2023-04-25T09:58:08;8.80;;;2.30;;
18879;SDS011;9572;52.378;13.404;2023-04-25T10:00:37;12.60;;;2.50;;
18879;SDS011;9572;52.378;13.404;2023-04-25T10:03:05;20.70;;;3.23;;
18879;SDS011;9572;52.378;13.404;2023-04-25T10:05:32;12.07;;;2.53;;
18879;SDS011;9572;52.378;13.404;2023-04-25T10:08:02;9.53;;;2.60;;
18879;SDS011;9572;52.378;13.404;2023-04-25T10:10:32;13.70;;;2.67;;
18879;SDS011;9572;52.378;13.404;2023-04-25T10:13:02;16.10;;;3.00;;
18879;SDS011;9572;52.378;13.404;2023-04-25T10:15:32;10.87;;;2.67;;
18879;SDS011;9572;52.378;13.404;2023-04-25T10:18:01;11.80;;;2.70;;
18879;SDS011;9572;52.378;13.404;2023-04-25T10:20:28;10.53;;;2.60;;
18879;SDS011;9572;52.378;13.404;2023-04-25T10:22:57;11.10;;;2.30;;
18879;SDS011;9572;52.378;13.404;2023-04-25T10:25:29;7.37;;;2.33;;
18879;SDS011;9572;52.378;13.404;2023-04-25T10:27:58;10.90;;;2.50;;
18879;SDS011;9572;52.378;13.404;2023-04-25T10:30:26;7.80;;;2.40;;
18879;SDS011;9572;52.378;13.404;2023-04-25T10:32:54;13.87;;;2.47;;
18879;SDS011;9572;52.378;13.404;2023-04-25T10:35:24;6.70;;;1.70;;
18879;SDS011;9572;52.378;13.404;2023-04-25T10:37:56;10.90;;;2.17;;
18879;SDS011;9572;52.378;13.404;2023-04-25T10:40:28;15.97;;;2.73;;
18879;SDS011;9572;52.378;13.404;2023-04-25T10:42:57;11.87;;;2.20;;
18879;SDS011;9572;52.378;13.404;2023-04-25T10:46:00;6.77;;;2.10;;
18879;SDS011;9572;52.378;13.404;2023-04-25T10:48:28;13.20;;;2.20;;
18879;SDS011;9572;52.378;13.404;2023-04-25T10:51:08;8.37;;;1.70;;
18879;SDS011;9572;52.378;13.404;2023-04-25T10:53:35;8.60;;;2.20;;
18879;SDS011;9572;52.378;13.404;2023-04-25T10:56:09;9.00;;;2.20;;
18879;SDS011;9572;52.378;13.404;2023-04-25T10:58:41;9.37;;;2.30;;
18879;SDS011;9572;52.378;13.404;2023-04-25T11:01:10;11.70;;;2.33;;
18879;SDS011;9572;52.378;13.404;2023-04-25T11:03:39;8.83;;;2.10;;
18879;SDS011;9572;52.378;13.404;2023-04-25T11:06:20;8.67;;;2.07;;
18879;SDS011;9572;52.378;13.404;2023-04-25T11:08:50;7.00;;;1.80;;
18879;SDS011;9572;52.378;13.404;2023-04-25T11:11:17;10.07;;;2.20;;
18879;SDS011;9572;52.378;13.404;2023-04-25T11:13:47;8.33;;;2.33;;
18879;SDS011;9572;52.378;13.404;2023-04-25T11:16:16;4.27;;;1.53;;
18879;SDS011;9572;52.378;13.404;2023-04-25T11:18:43;7.80;;;2.10;;
18879;SDS011;9572;52.378;13.404;2023-04-25T11:21:10;7.73;;;1.90;;
18879;SDS011;9572;52.378;13.404;2023-04-25T11:23:38;7.23;;;2.00;;
18879;SDS011;9572;52.378;13.404;2023-04-25T11:26:04;10.33;;;2.13;;
18879;SDS011;9572;52.378;13.404;2023-04-25T11:28:32;7.87;;;2.00;;
18879;SDS011;9572;52.378;13.404;2023-04-25T11:30:59;10.17;;;2.03;;
18879;SDS011;9572;52.378;13.404;2023-04-25T11:33:27;13.23;;;2.27;;
18879;SDS011;9572;52.378;13.404;2023-04-25T11:35:54;6.63;;;1.80;;
18879;SDS011;9572;52.378;13.404;2023-04-25T11:38:22;8.53;;;1.83;;
18879;SDS011;9572;52.378;13.404;2023-04-25T11:40:51;7.83;;;2.17;;
18879;SDS011;9572;52.378;13.404;2023-04-25T11:43:19;7.27;;;1.93;;
18879;SDS011;9572;52.378;13.404;2023-04-25T11:45:47;7.37;;;2.10;;
18879;SDS011;9572;52.378;13.404;2023-04-25T11:48:15;11.97;;;1.67;;
18879;SDS011;9572;52.378;13.404;2023-04-25T11:50:44;4.87;;;2.00;;
18879;SDS011;9572;52.378;13.404;2023-04-25T11:53:11;11.60;;;2.30;;
18879;SDS011;9572;52.378;13.404;2023-04-25T11:55:38;10.23;;;1.90;;
18879;SDS011;9572;52.378;13.404;2023-04-25T11:58:05;7.93;;;1.93;;
18879;SDS011;9572;52.378;13.404;2023-04-25T12:00:33;9.73;;;2.27;;
18879;SDS011;9572;52.378;13.404;2023-04-25T12:03:01;7.17;;;1.77;;
18879;SDS011;9572;52.378;13.404;2023-04-25T12:05:29;4.67;;;1.50;;
18879;SDS011;9572;52.378;13.404;2023-04-25T12:07:59;5.17;;;1.80;;
18879;SDS011;9572;52.378;13.404;2023-04-25T12:10:37;6.07;;;2.10;;
18879;SDS011;9572;52.378;13.404;2023-04-25T12:13:17;7.43;;;1.70;;
18879;SDS011;9572;52.378;13.404;2023-04-25T12:15:45;5.30;;;1.60;;
18879;SDS011;9572;52.378;13.404;2023-04-25T12:18:12;10.80;;;1.97;;
18879;SDS011;9572;52.378;13.404;2023-04-25T12:20:41;9.35;;;2.08;;
18879;SDS011;9572;52.378;13.404;2023-04-25T12:23:10;7.73;;;2.13;;
18879;SDS011;9572;52.378;13.404;2023-04-25T12:25:38;9.60;;;1.83;;
18879;SDS011;9572;52.378;13.404;2023-04-25T12:28:09;6.17;;;1.73;;
18879;SDS011;9572;52.378;13.404;2023-04-25T12:30:52;6.13;;;1.93;;
18879;SDS011;9572;52.378;13.404;2023-04-25T12:33:20;7.67;;;1.60;;
18879;SDS011;9572;52.378;13.404;2023-04-25T12:35:47;7.60;;;1.63;;
18879;SDS011;9572;52.378;13.404;2023-04-25T12:38:21;5.80;;;1.87;;
18879;SDS011;9572;52.378;13.404;2023-04-25T12:40:49;4.90;;;1.50;;
18879;SDS011;9572;52.378;13.404;2023-04-25T12:43:16;9.83;;;2.23;;
18879;SDS011;9572;52.378;13.404;2023-04-25T12:45:43;3.97;;;1.23;;
18879;SDS011;9572;52.378;13.404;2023-04-25T12:48:10;4.67;;;2.07;;
18879;SDS011;9572;52.378;13.404;2023-04-25T12:50:37;7.30;;;1.90;;
18879;SDS011;9572;52.378;13.404;2023-04-25T12:53:04;8.97;;;1.70;;
18879;SDS011;9572;52.378;13.404;2023-04-25T12:55:32;6.17;;;1.80;;
18879;SDS011;9572;52.378;13.404;2023-04-25T12:58:00;9.33;;;2.10;;
18879;SDS011;9572;52.378;13.404;2023-04-25T13:00:28;6.97;;;2.00;;
18879;SDS011;9572;52.378;13.404;2023-04-25T13:02:54;10.83;;;2.10;;
18879;SDS011;9572;52.378;13.404;2023-04-25T13:05:21;10.13;;;2.80;;
18879;SDS011;9572;52.378;13.404;2023-04-25T13:07:48;8.63;;;2.30;;
18879;SDS011;9572;52.378;13.404;2023-04-25T13:10:16;8.27;;;1.77;;
18879;SDS011;9572;52.378;13.404;2023-04-25T13:12:44;6.37;;;1.40;;
18879;SDS011;9572;52.378;13.404;2023-04-25T13:15:11;6.13;;;1.70;;
18879;SDS011;9572;52.378;13.404;2023-04-25T13:17:40;7.90;;;1.77;;
18879;SDS011;9572;52.378;13.404;2023-04-25T13:20:08;4.50;;;1.53;;
18879;SDS011;9572;52.378;13.404;2023-04-25T13:22:35;7.90;;;1.70;;
18879;SDS011;9572;52.378;13.404;2023-04-25T13:25:03;8.80;;;1.77;;
18879;SDS011;9572;52.378;13.404;2023-04-25T13:27:31;6.87;;;1.70;;
18879;SDS011;9572;52.378;13.404;2023-04-25T13:30:00;8.40;;;2.10;;
18879;SDS011;9572;52.378;13.404;2023-04-25T13:32:32;7.30;;;1.83;;
18879;SDS011;9572;52.378;13.404;2023-04-25T13:34:59;8.03;;;1.60;;
18879;SDS011;9572;52.378;13.404;2023-04-25T13:37:26;4.77;;;1.53;;
18879;SDS011;9572;52.378;13.404;2023-04-25T13:39:54;5.70;;;1.33;;
18879;SDS011;9572;52.378;13.404;2023-04-25T13:42:22;5.07;;;1.50;;
18879;SDS011;9572;52.378;13.404;2023-04-25T13:44:49;6.23;;;1.57;;
18879;SDS011;9572;52.378;13.404;2023-04-25T13:47:17;4.63;;;1.57;;
18879;SDS011;9572;52.378;13.404;2023-04-25T13:49:44;5.97;;;2.10;;
18879;SDS011;9572;52.378;13.404;2023-04-25T13:52:11;5.57;;;1.37;;
18879;SDS011;9572;52.378;13.404;2023-04-25T13:54:38;4.57;;;1.20;;
18879;SDS011;9572;52.378;13.404;2023-04-25T13:57:05;3.50;;;1.50;;
18879;SDS011;9572;52.378;13.404;2023-04-25T13:59:32;6.87;;;1.60;;
18879;SDS011;9572;52.378;13.404;2023-04-25T14:01:59;4.40;;;1.57;;
18879;SDS011;9572;52.378;13.404;2023-04-25T14:04:28;4.10;;;1.53;;
18879;SDS011;9572;52.378;13.404;2023-04-25T14:06:55;6.77;;;1.40;;
18879;SDS011;9572;52.378;13.404;2023-04-25T14:09:22;7.67;;;1.63;;
18879;SDS011;9572;52.378;13.404;2023-04-25T14:11:50;6.03;;;1.40;;
18879;SDS011;9572;52.378;13.404;2023-04-25T14:14:17;3.67;;;1.40;;
18879;SDS011;9572;52.378;13.404;2023-04-25T14:16:44;6.57;;;1.70;;
18879;SDS011;9572;52.378;13.404;2023-04-25T14:19:13;6.27;;;1.60;;
18879;SDS011;9572;52.378;13.404;2023-04-25T14:21:41;7.63;;;1.50;;
18879;SDS011;9572;52.378;13.404;2023-04-25T14:24:09;4.17;;;1.43;;
18879;SDS011;9572;52.378;13.404;2023-04-25T14:26:37;4.70;;;1.50;;
18879;SDS011;9572;52.378;13.404;2023-04-25T14:29:04;6.60;;;1.67;;
18879;SDS011;9572;52.378;13.404;2023-04-25T14:31:31;11.03;;;1.83;;
18879;SDS011;9572;52.378;13.404;2023-04-25T14:33:58;3.60;;;1.27;;
18879;SDS011;9572;52.378;13.404;2023-04-25T14:36:25;4.50;;;1.60;;
18879;SDS011;9572;52.378;13.404;2023-04-25T14:38:55;7.77;;;1.60;;
18879;SDS011;9572;52.378;13.404;2023-04-25T14:41:22;4.97;;;1.70;;
18879;SDS011;9572;52.378;13.404;2023-04-25T14:43:49;5.67;;;1.93;;
18879;SDS011;9572;52.378;13.404;2023-04-25T14:46:17;5.57;;;1.93;;
18879;SDS011;9572;52.378;13.404;2023-04-25T14:48:44;8.00;;;1.80;;